createdAt,value
2023-01-23T00:00:36.931Z,1012.46
2023-01-23T00:01:36.935Z,1012.46
2023-01-23T00:02:36.945Z,1012.46
2023-01-23T00:03:36.912Z,1012.47
2023-01-23T00:04:36.903Z,1012.49
2023-01-23T00:05:36.877Z,1012.51
2023-01-23T00:06:36.887Z,1012.51
2023-01-23T00:07:36.856Z,1012.51
2023-01-23T00:08:36.861Z,1012.51
2023-01-23T00:09:36.844Z,1012.50
2023-01-23T00:10:36.830Z,1012.49
2023-01-23T00:11:36.822Z,1012.47
2023-01-23T00:12:36.829Z,1012.47
2023-01-23T00:13:36.798Z,1012.49
2023-01-23T00:14:36.802Z,1012.51
2023-01-23T00:15:36.805Z,1012.52
2023-01-23T00:16:36.834Z,1012.52
2023-01-23T00:17:36.781Z,1012.52
2023-01-23T00:18:36.764Z,1012.52
2023-01-23T00:19:36.735Z,1012.50
2023-01-23T00:20:36.734Z,1012.49
2023-01-23T00:21:36.724Z,1012.49
2023-01-23T00:22:36.718Z,1012.50
2023-01-23T00:23:36.703Z,1012.50
2023-01-23T00:24:36.690Z,1012.48
2023-01-23T00:25:36.677Z,1012.46
2023-01-23T00:26:36.670Z,1012.44
2023-01-23T00:27:36.672Z,1012.43
2023-01-23T00:28:36.656Z,1012.42
2023-01-23T00:29:36.641Z,1012.41
2023-01-23T00:30:36.660Z,1012.41
2023-01-23T00:31:36.751Z,1012.41
2023-01-23T00:32:36.619Z,1012.41
2023-01-23T00:33:36.609Z,1012.41
2023-01-23T00:34:36.591Z,1012.39
2023-01-23T00:35:36.577Z,1012.39
2023-01-23T00:36:36.577Z,1012.38
2023-01-23T00:37:36.574Z,1012.38
2023-01-23T00:38:36.573Z,1012.39
2023-01-23T00:39:36.544Z,1012.40
2023-01-23T00:40:36.539Z,1012.41
2023-01-23T00:41:36.514Z,1012.41
2023-01-23T00:42:36.517Z,1012.42
2023-01-23T00:43:36.505Z,1012.42
2023-01-23T00:44:36.493Z,1012.43
2023-01-23T00:45:36.475Z,1012.44
2023-01-23T00:46:36.499Z,1012.46
2023-01-23T00:47:36.465Z,1012.47
2023-01-23T00:48:36.461Z,1012.48
2023-01-23T00:49:36.434Z,1012.47
2023-01-23T00:50:36.431Z,1012.48
2023-01-23T00:51:36.422Z,1012.47
2023-01-23T00:52:36.435Z,1012.48
2023-01-23T00:53:36.405Z,1012.49
2023-01-23T00:54:36.406Z,1012.47
2023-01-23T00:55:36.375Z,1012.47
2023-01-23T00:56:36.374Z,1012.47
2023-01-23T00:57:36.375Z,1012.47
2023-01-23T00:58:36.375Z,1012.48
2023-01-23T00:59:36.353Z,1012.50
2023-01-23T01:00:36.329Z,1012.51
2023-01-23T01:01:36.321Z,1012.51
2023-01-23T01:02:36.379Z,1012.52
2023-01-23T01:03:36.347Z,1012.53
2023-01-23T01:04:36.286Z,1012.53
2023-01-23T01:05:36.278Z,1012.55
2023-01-23T01:06:36.281Z,1012.58
2023-01-23T01:07:36.253Z,1012.62
2023-01-23T01:08:36.266Z,1012.65
2023-01-23T01:09:36.239Z,1012.69
2023-01-23T01:10:36.227Z,1012.72
2023-01-23T01:11:36.224Z,1012.74
2023-01-23T01:12:36.206Z,1012.75
2023-01-23T01:13:36.240Z,1012.76
2023-01-23T01:14:36.187Z,1012.76
2023-01-23T01:15:36.182Z,1012.77
2023-01-23T01:16:36.182Z,1012.79
2023-01-23T01:17:36.158Z,1012.79
2023-01-23T01:18:36.165Z,1012.79
2023-01-23T01:19:36.135Z,1012.79
2023-01-23T01:20:36.132Z,1012.78
2023-01-23T01:21:36.137Z,1012.77
2023-01-23T01:22:36.108Z,1012.77
2023-01-23T01:23:36.130Z,1012.78
2023-01-23T01:24:36.089Z,1012.81
2023-01-23T01:25:36.075Z,1012.83
2023-01-23T01:26:36.074Z,1012.84
2023-01-23T01:27:36.075Z,1012.84
2023-01-23T01:28:36.062Z,1012.84
2023-01-23T01:29:36.031Z,1012.85
2023-01-23T01:30:36.042Z,1012.86
2023-01-23T01:31:36.099Z,1012.86
2023-01-23T01:32:36.009Z,1012.85
2023-01-23T01:33:36.020Z,1012.85
2023-01-23T01:34:35.993Z,1012.84
2023-01-23T01:35:35.977Z,1012.83
2023-01-23T01:36:35.971Z,1012.82
2023-01-23T01:37:35.967Z,1012.82
2023-01-23T01:38:35.961Z,1012.82
2023-01-23T01:39:35.936Z,1012.82
2023-01-23T01:40:35.921Z,1012.79
2023-01-23T01:41:35.919Z,1012.78
2023-01-23T01:42:35.904Z,1012.78
2023-01-23T01:43:35.903Z,1012.80
2023-01-23T01:44:35.895Z,1012.82
2023-01-23T01:45:35.869Z,1012.81
2023-01-23T01:46:35.897Z,1012.82
2023-01-23T01:47:35.852Z,1012.82
2023-01-23T01:48:35.881Z,1012.82
2023-01-23T01:49:35.828Z,1012.81
2023-01-23T01:50:35.824Z,1012.80
2023-01-23T01:51:35.821Z,1012.80
2023-01-23T01:52:35.820Z,1012.83
2023-01-23T01:53:35.795Z,1012.86
2023-01-23T01:54:35.786Z,1012.89
2023-01-23T01:55:35.776Z,1012.92
2023-01-23T01:56:35.768Z,1012.95
2023-01-23T01:57:35.787Z,1012.96
2023-01-23T01:58:35.776Z,1012.97
2023-01-23T01:59:35.742Z,1012.99
2023-01-23T02:00:35.740Z,1013.00
2023-01-23T02:01:35.715Z,1012.99
2023-01-23T02:02:35.700Z,1012.99
2023-01-23T02:03:35.709Z,1013.00
2023-01-23T02:04:35.687Z,1013.02
2023-01-23T02:05:35.683Z,1013.02
2023-01-23T02:06:35.664Z,1013.02
2023-01-23T02:07:35.651Z,1013.02
2023-01-23T02:08:35.665Z,1013.02
2023-01-23T02:09:35.628Z,1013.03
2023-01-23T02:10:35.627Z,1013.03
2023-01-23T02:11:35.615Z,1013.02
2023-01-23T02:12:35.603Z,1013.02
2023-01-23T02:13:35.605Z,1013.00
2023-01-23T02:14:35.583Z,1013.00
2023-01-23T02:15:35.577Z,1013.00
2023-01-23T02:16:35.626Z,1012.99
2023-01-23T02:17:35.555Z,1013.02
2023-01-23T02:18:35.591Z,1013.05
2023-01-23T02:19:35.527Z,1013.06
2023-01-23T02:20:35.528Z,1013.05
2023-01-23T02:21:35.510Z,1013.06
2023-01-23T02:22:35.502Z,1013.05
2023-01-23T02:23:35.541Z,1013.05
2023-01-23T02:24:35.484Z,1013.05
2023-01-23T02:25:35.471Z,1013.03
2023-01-23T02:26:35.463Z,1013.02
2023-01-23T02:27:35.446Z,1013.02
2023-01-23T02:28:35.471Z,1013.03
2023-01-23T02:29:35.425Z,1013.03
2023-01-23T02:30:35.420Z,1013.03
2023-01-23T02:31:35.569Z,1013.03
2023-01-23T02:32:35.418Z,1013.03
2023-01-23T02:33:35.400Z,1013.02
2023-01-23T02:34:35.383Z,1013.00
2023-01-23T02:35:35.368Z,1013.00
2023-01-23T02:36:35.371Z,1013.01
2023-01-23T02:37:35.351Z,1013.03
2023-01-23T02:38:35.353Z,1013.04
2023-01-23T02:39:35.329Z,1013.05
2023-01-23T02:40:35.331Z,1013.06
2023-01-23T02:41:35.308Z,1013.09
2023-01-23T02:42:35.307Z,1013.09
2023-01-23T02:43:35.336Z,1013.11
2023-01-23T02:44:35.284Z,1013.13
2023-01-23T02:45:35.309Z,1013.15
2023-01-23T02:46:35.261Z,1013.18
2023-01-23T02:47:35.264Z,1013.20
2023-01-23T02:48:35.256Z,1013.22
2023-01-23T02:49:35.235Z,1013.22
2023-01-23T02:50:35.226Z,1013.24
2023-01-23T02:51:35.217Z,1013.24
2023-01-23T02:52:35.207Z,1013.24
2023-01-23T02:53:35.191Z,1013.26
2023-01-23T02:54:35.204Z,1013.28
2023-01-23T02:55:35.167Z,1013.28
2023-01-23T02:56:35.164Z,1013.29
2023-01-23T02:57:35.152Z,1013.30
2023-01-23T02:58:35.141Z,1013.31
2023-01-23T02:59:35.136Z,1013.32
2023-01-23T03:00:35.116Z,1013.32
2023-01-23T03:01:35.111Z,1013.32
2023-01-23T03:02:35.091Z,1013.35
2023-01-23T03:03:35.096Z,1013.38
2023-01-23T03:04:35.086Z,1013.40
2023-01-23T03:05:35.076Z,1013.41
2023-01-23T03:06:35.058Z,1013.43
2023-01-23T03:07:35.053Z,1013.44
2023-01-23T03:08:35.036Z,1013.44
2023-01-23T03:09:35.031Z,1013.42
2023-01-23T03:10:35.028Z,1013.42
2023-01-23T03:11:35.016Z,1013.41
2023-01-23T03:12:34.991Z,1013.40
2023-01-23T03:13:34.988Z,1013.39
2023-01-23T03:14:34.986Z,1013.40
2023-01-23T03:15:34.966Z,1013.39
2023-01-23T03:16:37.956Z,1013.39
2023-01-23T03:17:34.960Z,1013.39
2023-01-23T03:18:48.900Z,1013.39
2023-01-23T03:19:34.951Z,1013.41
2023-01-23T03:20:34.929Z,1013.40
2023-01-23T03:21:34.906Z,1013.40
2023-01-23T03:22:34.906Z,1013.41
2023-01-23T03:23:34.890Z,1013.43
2023-01-23T03:24:34.902Z,1013.46
2023-01-23T03:25:34.875Z,1013.48
2023-01-23T03:26:34.860Z,1013.49
2023-01-23T03:27:34.850Z,1013.50
2023-01-23T03:28:34.848Z,1013.53
2023-01-23T03:29:34.840Z,1013.54
2023-01-23T03:30:34.839Z,1013.55
2023-01-23T03:31:34.850Z,1013.56
2023-01-23T03:32:34.798Z,1013.59
2023-01-23T03:33:34.788Z,1013.59
2023-01-23T03:34:34.782Z,1013.61
2023-01-23T03:35:34.769Z,1013.61
2023-01-23T03:36:34.753Z,1013.61
2023-01-23T03:37:34.744Z,1013.62
2023-01-23T03:38:34.738Z,1013.62
2023-01-23T03:39:34.730Z,1013.63
2023-01-23T03:40:34.714Z,1013.65
2023-01-23T03:41:34.712Z,1013.66
2023-01-23T03:42:34.717Z,1013.67
2023-01-23T03:43:34.696Z,1013.68
2023-01-23T03:44:34.684Z,1013.69
2023-01-23T03:45:34.714Z,1013.69
2023-01-23T03:46:34.696Z,1013.70
2023-01-23T03:47:34.649Z,1013.70
2023-01-23T03:48:34.633Z,1013.71
2023-01-23T03:49:34.646Z,1013.71
2023-01-23T03:50:34.631Z,1013.70
2023-01-23T03:51:34.605Z,1013.69
2023-01-23T03:52:34.593Z,1013.69
2023-01-23T03:53:34.592Z,1013.68
2023-01-23T03:54:34.596Z,1013.67
2023-01-23T03:55:34.564Z,1013.65
2023-01-23T03:56:34.554Z,1013.64
2023-01-23T03:57:34.545Z,1013.63
2023-01-23T03:58:34.532Z,1013.60
2023-01-23T03:59:34.540Z,1013.60
2023-01-23T04:00:34.509Z,1013.59
2023-01-23T04:01:34.515Z,1013.58
2023-01-23T04:02:34.502Z,1013.59
2023-01-23T04:03:34.490Z,1013.60
2023-01-23T04:04:34.487Z,1013.64
2023-01-23T04:05:34.476Z,1013.67
2023-01-23T04:06:34.502Z,1013.68
2023-01-23T04:07:34.454Z,1013.69
2023-01-23T04:08:34.433Z,1013.69
2023-01-23T04:09:34.448Z,1013.69
2023-01-23T04:10:34.423Z,1013.69
2023-01-23T04:11:34.406Z,1013.71
2023-01-23T04:12:34.392Z,1013.70
2023-01-23T04:13:34.388Z,1013.71
2023-01-23T04:14:34.447Z,1013.71
2023-01-23T04:15:34.373Z,1013.68
2023-01-23T04:16:34.376Z,1013.68
2023-01-23T04:17:34.350Z,1013.67
2023-01-23T04:18:34.350Z,1013.66
2023-01-23T04:19:34.559Z,1013.65
2023-01-23T04:20:34.315Z,1013.65
2023-01-23T04:21:34.318Z,1013.63
2023-01-23T04:22:34.299Z,1013.63
2023-01-23T04:23:34.287Z,1013.64
2023-01-23T04:24:34.307Z,1013.64
2023-01-23T04:25:34.266Z,1013.66
2023-01-23T04:26:34.258Z,1013.68
2023-01-23T04:27:34.259Z,1013.69
2023-01-23T04:28:34.237Z,1013.71
2023-01-23T04:29:34.612Z,1013.72
2023-01-23T04:30:34.275Z,1013.73
2023-01-23T04:31:34.346Z,1013.73
2023-01-23T04:32:34.202Z,1013.73
2023-01-23T04:33:34.193Z,1013.72
2023-01-23T04:34:34.469Z,1013.71
2023-01-23T04:35:34.185Z,1013.70
2023-01-23T04:36:34.168Z,1013.70
2023-01-23T04:37:34.153Z,1013.70
2023-01-23T04:38:34.135Z,1013.68
2023-01-23T04:39:34.151Z,1013.68
2023-01-23T04:40:34.117Z,1013.67
2023-01-23T04:41:34.116Z,1013.66
2023-01-23T04:42:34.103Z,1013.64
2023-01-23T04:43:34.091Z,1013.64
2023-01-23T04:44:34.103Z,1013.65
2023-01-23T04:45:34.079Z,1013.64
2023-01-23T04:46:34.076Z,1013.64
2023-01-23T04:47:34.052Z,1013.64
2023-01-23T04:48:34.033Z,1013.65
2023-01-23T04:49:34.050Z,1013.66
2023-01-23T04:50:34.013Z,1013.67
2023-01-23T04:51:34.012Z,1013.68
2023-01-23T04:52:33.994Z,1013.68
2023-01-23T04:53:33.988Z,1013.70
2023-01-23T04:54:33.987Z,1013.70
2023-01-23T04:55:33.974Z,1013.70
2023-01-23T04:56:33.957Z,1013.70
2023-01-23T04:57:33.952Z,1013.69
2023-01-23T04:58:33.938Z,1013.68
2023-01-23T04:59:33.943Z,1013.69
2023-01-23T05:00:33.929Z,1013.69
2023-01-23T05:01:33.921Z,1013.69
2023-01-23T05:02:33.897Z,1013.68
2023-01-23T05:03:33.831Z,1013.67
2023-01-23T05:04:33.844Z,1013.66
2023-01-23T05:05:33.817Z,1013.64
2023-01-23T05:06:33.814Z,1013.64
2023-01-23T05:07:33.796Z,1013.64
2023-01-23T05:08:33.802Z,1013.64
2023-01-23T05:09:33.792Z,1013.63
2023-01-23T05:10:33.769Z,1013.63
2023-01-23T05:11:33.762Z,1013.62
2023-01-23T05:12:33.747Z,1013.63
2023-01-23T05:13:33.739Z,1013.62
2023-01-23T05:14:33.720Z,1013.62
2023-01-23T05:15:33.890Z,1013.62
2023-01-23T05:16:33.706Z,1013.61
2023-01-23T05:17:33.700Z,1013.61
2023-01-23T05:18:33.685Z,1013.62
2023-01-23T05:19:33.680Z,1013.63
2023-01-23T05:20:33.737Z,1013.63
2023-01-23T05:21:33.719Z,1013.63
2023-01-23T05:22:33.693Z,1013.63
2023-01-23T05:23:33.690Z,1013.63
2023-01-23T05:24:33.735Z,1013.65
2023-01-23T05:25:33.693Z,1013.66
2023-01-23T05:26:33.658Z,1013.66
2023-01-23T05:27:33.649Z,1013.66
2023-01-23T05:28:33.637Z,1013.66
2023-01-23T05:29:33.642Z,1013.67
2023-01-23T05:30:33.724Z,1013.67
2023-01-23T05:31:33.682Z,1013.66
2023-01-23T05:32:33.596Z,1013.66
2023-01-23T05:33:33.590Z,1013.68
2023-01-23T05:34:33.577Z,1013.68
2023-01-23T05:35:33.574Z,1013.69
2023-01-23T05:36:33.558Z,1013.71
2023-01-23T05:37:33.563Z,1013.72
2023-01-23T05:38:33.542Z,1013.73
2023-01-23T05:39:33.532Z,1013.74
2023-01-23T05:40:33.534Z,1013.75
2023-01-23T05:41:33.543Z,1013.76
2023-01-23T05:42:33.508Z,1013.76
2023-01-23T05:43:33.490Z,1013.77
2023-01-23T05:44:33.478Z,1013.77
2023-01-23T05:45:33.490Z,1013.76
2023-01-23T05:46:33.520Z,1013.75
2023-01-23T05:47:33.455Z,1013.75
2023-01-23T05:48:33.433Z,1013.75
2023-01-23T05:49:33.435Z,1013.76
2023-01-23T05:50:34.574Z,1013.76
2023-01-23T05:51:33.415Z,1013.76
2023-01-23T05:52:33.348Z,1013.77
2023-01-23T05:53:33.392Z,1013.78
2023-01-23T05:54:33.387Z,1013.78
2023-01-23T05:55:33.377Z,1013.78
2023-01-23T05:56:33.369Z,1013.77
2023-01-23T05:57:33.356Z,1013.79
2023-01-23T05:58:33.335Z,1013.79
2023-01-23T05:59:33.357Z,1013.81
2023-01-23T06:00:33.324Z,1013.82
2023-01-23T06:01:33.262Z,1013.84
2023-01-23T06:02:33.313Z,1013.86
2023-01-23T06:03:33.301Z,1013.88
2023-01-23T06:04:33.276Z,1013.87
2023-01-23T06:05:33.276Z,1013.89
2023-01-23T06:06:33.203Z,1013.89
2023-01-23T06:07:33.208Z,1013.92
2023-01-23T06:08:33.186Z,1013.96
2023-01-23T06:09:33.228Z,1013.98
2023-01-23T06:10:33.236Z,1013.98
2023-01-23T06:11:33.208Z,1013.99
2023-01-23T06:12:33.195Z,1013.98
2023-01-23T06:13:33.190Z,1013.97
2023-01-23T06:14:33.176Z,1013.97
2023-01-23T06:15:33.214Z,1013.98
2023-01-23T06:16:33.156Z,1014.00
2023-01-23T06:17:33.193Z,1014.01
2023-01-23T06:18:33.142Z,1014.02
2023-01-23T06:19:33.143Z,1014.03
2023-01-23T06:20:33.121Z,1014.03
2023-01-23T06:21:33.115Z,1014.06
2023-01-23T06:22:33.097Z,1014.06
2023-01-23T06:23:33.108Z,1014.07
2023-01-23T06:24:33.087Z,1014.10
2023-01-23T06:25:33.082Z,1014.12
2023-01-23T06:26:33.056Z,1014.14
2023-01-23T06:27:33.054Z,1014.16
2023-01-23T06:28:33.043Z,1014.17
2023-01-23T06:29:33.035Z,1014.19
2023-01-23T06:30:33.073Z,1014.21
2023-01-23T06:31:33.113Z,1014.22
2023-01-23T06:32:32.994Z,1014.23
2023-01-23T06:33:32.992Z,1014.25
2023-01-23T06:34:32.981Z,1014.28
2023-01-23T06:35:32.981Z,1014.29
2023-01-23T06:36:32.951Z,1014.30
2023-01-23T06:37:32.954Z,1014.32
2023-01-23T06:38:32.881Z,1014.33
2023-01-23T06:39:32.924Z,1014.34
2023-01-23T06:40:32.922Z,1014.39
2023-01-23T06:41:32.913Z,1014.41
2023-01-23T06:42:32.899Z,1014.43
2023-01-23T06:43:32.887Z,1014.46
2023-01-23T06:44:32.877Z,1014.46
2023-01-23T06:45:32.873Z,1014.47
2023-01-23T06:46:32.840Z,1014.48
2023-01-23T06:47:32.792Z,1014.50
2023-01-23T06:48:32.777Z,1014.51
2023-01-23T06:49:32.785Z,1014.53
2023-01-23T06:50:32.764Z,1014.54
2023-01-23T06:51:32.760Z,1014.56
2023-01-23T06:52:32.797Z,1014.58
2023-01-23T06:53:32.787Z,1014.59
2023-01-23T06:54:32.771Z,1014.61
2023-01-23T06:55:32.729Z,1014.63
2023-01-23T06:56:32.707Z,1014.64
2023-01-23T06:57:32.695Z,1014.65
2023-01-23T06:58:32.694Z,1014.66
2023-01-23T06:59:32.686Z,1014.67
2023-01-23T07:00:32.674Z,1014.67
2023-01-23T07:01:32.675Z,1014.65
2023-01-23T07:02:32.678Z,1014.65
2023-01-23T07:03:32.639Z,1014.64
2023-01-23T07:04:32.617Z,1014.64
2023-01-23T07:05:32.623Z,1014.66
2023-01-23T07:06:32.608Z,1014.69
2023-01-23T07:07:32.605Z,1014.71
2023-01-23T07:08:32.581Z,1014.74
2023-01-23T07:09:32.574Z,1014.74
2023-01-23T07:10:32.573Z,1014.74
2023-01-23T07:11:32.562Z,1014.73
2023-01-23T07:12:32.547Z,1014.74
2023-01-23T07:13:32.527Z,1014.75
2023-01-23T07:14:32.526Z,1014.77
2023-01-23T07:15:32.522Z,1014.78
2023-01-23T07:16:32.534Z,1014.80
2023-01-23T07:17:32.486Z,1014.83
2023-01-23T07:18:32.486Z,1014.85
2023-01-23T07:19:32.468Z,1014.87
2023-01-23T07:20:32.513Z,1014.87
2023-01-23T07:21:32.451Z,1014.88
2023-01-23T07:22:32.441Z,1014.89
2023-01-23T07:23:32.429Z,1014.89
2023-01-23T07:24:32.459Z,1014.89
2023-01-23T07:25:32.425Z,1014.89
2023-01-23T07:26:32.406Z,1014.86
2023-01-23T07:27:32.397Z,1014.86
2023-01-23T07:28:32.383Z,1014.85
2023-01-23T07:29:32.368Z,1014.85
2023-01-23T07:30:32.469Z,1014.86
2023-01-23T07:31:32.456Z,1014.87
2023-01-23T07:32:32.350Z,1014.88
2023-01-23T07:33:32.333Z,1014.90
2023-01-23T07:34:32.355Z,1014.92
2023-01-23T07:35:32.325Z,1014.92
2023-01-23T07:36:32.339Z,1014.91
2023-01-23T07:37:32.284Z,1014.90
2023-01-23T07:38:32.284Z,1014.90
2023-01-23T07:39:32.269Z,1014.91
2023-01-23T07:40:32.331Z,1014.92
2023-01-23T07:41:32.244Z,1014.90
2023-01-23T07:42:32.248Z,1014.89
2023-01-23T07:43:32.245Z,1014.87
2023-01-23T07:44:32.232Z,1014.86
2023-01-23T07:45:32.239Z,1014.86
2023-01-23T07:46:32.241Z,1014.85
2023-01-23T07:47:32.187Z,1014.86
2023-01-23T07:48:32.178Z,1014.89
2023-01-23T07:49:32.183Z,1014.91
2023-01-23T07:50:32.201Z,1014.92
2023-01-23T07:51:32.165Z,1014.94
2023-01-23T07:52:32.140Z,1014.94
2023-01-23T07:53:32.135Z,1014.94
2023-01-23T07:54:32.123Z,1014.95
2023-01-23T07:55:32.119Z,1014.95
2023-01-23T07:56:32.115Z,1014.94
2023-01-23T07:57:32.084Z,1014.97
2023-01-23T07:58:32.101Z,1014.97
2023-01-23T07:59:32.089Z,1014.99
2023-01-23T08:00:32.437Z,1015.01
2023-01-23T08:01:32.050Z,1015.02
2023-01-23T08:02:32.039Z,1015.02
2023-01-23T08:03:32.057Z,1015.03
2023-01-23T08:04:32.025Z,1015.05
2023-01-23T08:05:32.024Z,1015.07
2023-01-23T08:06:32.005Z,1015.08
2023-01-23T08:07:32.006Z,1015.08
2023-01-23T08:08:31.988Z,1015.08
2023-01-23T08:09:31.976Z,1015.08
2023-01-23T08:10:31.998Z,1015.10
2023-01-23T08:11:34.303Z,1015.11
2023-01-23T08:12:31.946Z,1015.12
2023-01-23T08:13:31.929Z,1015.14
2023-01-23T08:14:31.927Z,1015.16
2023-01-23T08:15:31.943Z,1015.19
2023-01-23T08:16:31.909Z,1015.20
2023-01-23T08:17:31.898Z,1015.22
2023-01-23T08:18:31.893Z,1015.24
2023-01-23T08:19:31.874Z,1015.25
2023-01-23T08:20:31.937Z,1015.27
2023-01-23T08:21:31.857Z,1015.26
2023-01-23T08:22:31.849Z,1015.25
2023-01-23T08:23:31.843Z,1015.24
2023-01-23T08:24:31.833Z,1015.24
2023-01-23T08:25:31.832Z,1015.24
2023-01-23T08:26:31.821Z,1015.25
2023-01-23T08:27:31.795Z,1015.27
2023-01-23T08:28:31.809Z,1015.29
2023-01-23T08:29:31.779Z,1015.30
2023-01-23T08:30:31.896Z,1015.32
2023-01-23T08:31:32.007Z,1015.35
2023-01-23T08:32:31.746Z,1015.38
2023-01-23T08:33:31.743Z,1015.40
2023-01-23T08:34:31.735Z,1015.42
2023-01-23T08:35:31.846Z,1015.43
2023-01-23T08:36:31.735Z,1015.44
2023-01-23T08:37:31.723Z,1015.45
2023-01-23T08:38:31.750Z,1015.46
2023-01-23T08:39:31.683Z,1015.48
2023-01-23T08:40:31.749Z,1015.48
2023-01-23T08:41:31.664Z,1015.48
2023-01-23T08:42:31.713Z,1015.50
2023-01-23T08:43:31.639Z,1015.52
2023-01-23T08:44:31.637Z,1015.53
2023-01-23T08:45:31.669Z,1015.55
2023-01-23T08:46:31.615Z,1015.57
2023-01-23T08:47:31.608Z,1015.57
2023-01-23T08:48:31.634Z,1015.58
2023-01-23T08:49:31.586Z,1015.60
2023-01-23T08:50:31.635Z,1015.60
2023-01-23T08:51:31.567Z,1015.61
2023-01-23T08:52:31.689Z,1015.61
2023-01-23T08:53:31.567Z,1015.62
2023-01-23T08:54:31.551Z,1015.62
2023-01-23T08:55:31.578Z,1015.62
2023-01-23T08:56:31.530Z,1015.62
2023-01-23T08:57:31.537Z,1015.62
2023-01-23T08:58:31.542Z,1015.63
2023-01-23T08:59:31.498Z,1015.63
2023-01-23T09:00:31.505Z,1015.64
2023-01-23T09:01:31.471Z,1015.67
2023-01-23T09:02:31.565Z,1015.68
2023-01-23T09:03:31.489Z,1015.69
2023-01-23T09:04:31.460Z,1015.69
2023-01-23T09:05:31.454Z,1015.69
2023-01-23T09:06:31.519Z,1015.70
2023-01-23T09:07:31.409Z,1015.70
2023-01-23T09:08:31.395Z,1015.70
2023-01-23T09:09:31.422Z,1015.69
2023-01-23T09:10:31.397Z,1015.70
2023-01-23T09:11:31.372Z,1015.69
2023-01-23T09:12:31.361Z,1015.69
2023-01-23T09:13:31.340Z,1015.71
2023-01-23T09:14:31.347Z,1015.72
2023-01-23T09:15:31.353Z,1015.74
2023-01-23T09:16:31.353Z,1015.75
2023-01-23T09:17:31.357Z,1015.75
2023-01-23T09:18:31.294Z,1015.75
2023-01-23T09:19:31.303Z,1015.76
2023-01-23T09:20:31.290Z,1015.76
2023-01-23T09:21:31.260Z,1015.79
2023-01-23T09:22:31.263Z,1015.81
2023-01-23T09:23:31.276Z,1015.83
2023-01-23T09:24:31.243Z,1015.86
2023-01-23T09:25:31.242Z,1015.89
2023-01-23T09:26:31.231Z,1015.91
2023-01-23T09:27:31.213Z,1015.91
2023-01-23T09:28:31.198Z,1015.90
2023-01-23T09:29:31.188Z,1015.90
2023-01-23T09:30:31.297Z,1015.89
2023-01-23T09:31:31.229Z,1015.89
2023-01-23T09:32:31.166Z,1015.91
2023-01-23T09:33:31.179Z,1015.92
2023-01-23T09:34:31.140Z,1015.93
2023-01-23T09:35:31.131Z,1015.93
2023-01-23T09:36:42.343Z,1015.95
2023-01-23T09:37:31.124Z,1015.97
2023-01-23T09:38:31.117Z,1015.99
2023-01-23T09:39:31.091Z,1015.99
2023-01-23T09:40:31.103Z,1016.00
2023-01-23T09:41:31.071Z,1016.01
2023-01-23T09:42:31.067Z,1015.99
2023-01-23T09:43:31.054Z,1015.99
2023-01-23T09:44:31.039Z,1015.97
2023-01-23T09:45:31.031Z,1015.97
2023-01-23T09:46:31.031Z,1015.96
2023-01-23T09:47:31.065Z,1015.94
2023-01-23T09:48:31.000Z,1015.94
2023-01-23T09:49:30.987Z,1015.93
2023-01-23T09:50:30.975Z,1015.94
2023-01-23T09:51:30.988Z,1015.97
2023-01-23T09:52:30.960Z,1015.96
2023-01-23T09:53:30.947Z,1015.95
2023-01-23T09:54:30.942Z,1015.97
2023-01-23T09:55:30.924Z,1015.97
2023-01-23T09:56:31.134Z,1015.96
2023-01-23T09:57:30.913Z,1015.97
2023-01-23T09:58:30.913Z,1015.98
2023-01-23T09:59:30.879Z,1016.00
2023-01-23T10:00:30.880Z,1015.98
2023-01-23T10:01:30.921Z,1015.97
2023-01-23T10:02:30.939Z,1015.97
2023-01-23T10:03:30.858Z,1015.95
2023-01-23T10:04:30.842Z,1015.93
2023-01-23T10:05:30.854Z,1015.91
2023-01-23T10:06:30.820Z,1015.89
2023-01-23T10:07:30.849Z,1015.88
2023-01-23T10:08:30.817Z,1015.88
2023-01-23T10:09:30.782Z,1015.89
2023-01-23T10:10:30.774Z,1015.89
2023-01-23T10:11:30.769Z,1015.90
2023-01-23T10:12:30.758Z,1015.90
2023-01-23T10:13:30.746Z,1015.89
2023-01-23T10:14:30.731Z,1015.87
2023-01-23T10:15:30.730Z,1015.86
2023-01-23T10:16:41.235Z,1015.85
2023-01-23T10:17:30.722Z,1015.86
2023-01-23T10:18:30.692Z,1015.85
2023-01-23T10:19:30.678Z,1015.87
2023-01-23T10:20:30.668Z,1015.86
2023-01-23T10:21:30.675Z,1015.85
2023-01-23T10:22:30.645Z,1015.85
2023-01-23T10:23:30.647Z,1015.83
2023-01-23T10:24:37.985Z,1015.82
2023-01-23T10:25:30.623Z,1015.81
2023-01-23T10:26:31.723Z,1015.81
2023-01-23T10:27:30.601Z,1015.78
2023-01-23T10:28:30.586Z,1015.77
2023-01-23T10:29:30.629Z,1015.76
2023-01-23T10:30:30.672Z,1015.75
2023-01-23T10:31:30.626Z,1015.72
2023-01-23T10:32:30.542Z,1015.70
2023-01-23T10:33:30.530Z,1015.70
2023-01-23T10:34:30.523Z,1015.67
2023-01-23T10:35:30.512Z,1015.66
2023-01-23T10:36:42.006Z,1015.66
2023-01-23T10:37:31.606Z,1015.66
2023-01-23T10:38:30.481Z,1015.66
2023-01-23T10:39:30.488Z,1015.64
2023-01-23T10:40:30.511Z,1015.62
2023-01-23T10:41:30.479Z,1015.61
2023-01-23T10:42:30.451Z,1015.61
2023-01-23T10:43:30.437Z,1015.63
2023-01-23T10:44:30.428Z,1015.64
2023-01-23T10:45:30.422Z,1015.66
2023-01-23T10:46:30.450Z,1015.69
2023-01-23T10:47:33.311Z,1015.70
2023-01-23T10:48:30.385Z,1015.71
2023-01-23T10:49:30.395Z,1015.72
2023-01-23T10:50:30.397Z,1015.73
2023-01-23T10:51:30.456Z,1015.73
2023-01-23T10:52:30.340Z,1015.71
2023-01-23T10:53:30.325Z,1015.72
2023-01-23T10:54:32.601Z,1015.71
2023-01-23T10:55:30.355Z,1015.69
2023-01-23T10:56:30.297Z,1015.67
2023-01-23T10:57:30.282Z,1015.66
2023-01-23T10:58:30.284Z,1015.64
2023-01-23T10:59:30.265Z,1015.65
2023-01-23T11:00:30.455Z,1015.64
2023-01-23T11:01:30.333Z,1015.63
2023-01-23T11:02:30.337Z,1015.63
2023-01-23T11:03:30.229Z,1015.64
2023-01-23T11:04:30.214Z,1015.64
2023-01-23T11:05:31.034Z,1015.65
2023-01-23T11:06:30.220Z,1015.65
2023-01-23T11:07:30.192Z,1015.64
2023-01-23T11:08:30.172Z,1015.64
2023-01-23T11:09:30.158Z,1015.64
2023-01-23T11:10:30.156Z,1015.64
2023-01-23T11:11:30.159Z,1015.64
2023-01-23T11:12:30.143Z,1015.65
2023-01-23T11:13:30.118Z,1015.66
2023-01-23T11:14:30.112Z,1015.68
2023-01-23T11:15:30.128Z,1015.68
2023-01-23T11:16:30.114Z,1015.70
2023-01-23T11:17:30.078Z,1015.70
2023-01-23T11:18:30.079Z,1015.70
2023-01-23T11:19:30.061Z,1015.70
2023-01-23T11:20:30.065Z,1015.70
2023-01-23T11:21:30.050Z,1015.70
2023-01-23T11:22:30.029Z,1015.69
2023-01-23T11:23:30.024Z,1015.68
2023-01-23T11:24:39.296Z,1015.66
2023-01-23T11:25:30.004Z,1015.65
2023-01-23T11:26:30.000Z,1015.64
2023-01-23T11:27:30.031Z,1015.64
2023-01-23T11:28:29.967Z,1015.65
2023-01-23T11:29:29.958Z,1015.65
2023-01-23T11:30:29.964Z,1015.66
2023-01-23T11:31:30.094Z,1015.68
2023-01-23T11:32:30.179Z,1015.67
2023-01-23T11:33:29.916Z,1015.66
2023-01-23T11:34:29.902Z,1015.65
2023-01-23T11:35:29.895Z,1015.65
2023-01-23T11:36:29.897Z,1015.64
2023-01-23T11:37:29.881Z,1015.64
2023-01-23T11:38:31.291Z,1015.63
2023-01-23T11:39:29.873Z,1015.62
2023-01-23T11:40:29.842Z,1015.61
2023-01-23T11:41:29.846Z,1015.60
2023-01-23T11:42:29.827Z,1015.58
2023-01-23T11:43:29.822Z,1015.57
2023-01-23T11:44:32.375Z,1015.58
2023-01-23T11:45:29.803Z,1015.57
2023-01-23T11:46:29.882Z,1015.56
2023-01-23T11:47:29.777Z,1015.56
2023-01-23T11:48:29.781Z,1015.57
2023-01-23T11:49:29.750Z,1015.59
2023-01-23T11:50:29.742Z,1015.63
2023-01-23T11:51:29.816Z,1015.64
2023-01-23T11:52:29.723Z,1015.63
2023-01-23T11:53:41.497Z,1015.62
2023-01-23T11:54:29.707Z,1015.61
2023-01-23T11:55:29.696Z,1015.60
2023-01-23T11:56:29.694Z,1015.59
2023-01-23T11:57:29.669Z,1015.60
2023-01-23T11:58:30.773Z,1015.60
2023-01-23T11:59:29.668Z,1015.58
2023-01-23T12:00:29.639Z,1015.55
2023-01-23T12:01:29.636Z,1015.52
2023-01-23T12:02:29.643Z,1015.53
2023-01-23T12:03:29.670Z,1015.53
2023-01-23T12:04:29.599Z,1015.54
2023-01-23T12:05:29.597Z,1015.55